SHOG15 YWLM-YWLM

Flight info

Callsign SHOG15
Flight time 0h 36m
Altitude 10000
Route YWLM
Aircraft F35/M-SDFIRWY/LB1

Departure

Time 2026-04-27 06:00
Airport Newcastle Airport (YWLM)

Arrival

Time 2026-04-27 06:36
Airport Newcastle Airport (YWLM)
Time Latitude Longitude Altitude Speed Heading
2026-04-27 05:26 -32.79035 151.83734 25 ft 0 kts 234°
2026-04-27 05:30 -32.79049 151.83719 27 ft 4 kts 195°
2026-04-27 05:31 -32.79107 151.83761 29 ft 13 kts 144°
2026-04-27 05:31 -32.79155 151.83749 27 ft 14 kts 220°
2026-04-27 05:31 -32.79260 151.83644 26 ft 22 kts 218°
2026-04-27 05:31 -32.79373 151.83531 26 ft 18 kts 219°
2026-04-27 05:32 -32.79377 151.83474 27 ft 11 kts 309°
2026-04-27 05:32 -32.79308 151.83378 25 ft 20 kts 310°
2026-04-27 05:32 -32.79209 151.83241 25 ft 22 kts 310°
2026-04-27 05:32 -32.79110 151.83102 25 ft 22 kts 310°
2026-04-27 05:33 -32.79011 151.82965 27 ft 22 kts 308°
2026-04-27 05:33 -32.78913 151.82829 27 ft 22 kts 310°
2026-04-27 05:33 -32.78800 151.82673 25 ft 27 kts 311°
2026-04-27 05:33 -32.78712 151.82580 25 ft 10 kts 30°
2026-04-27 05:34 -32.78636 151.82637 25 ft 8 kts 336°
2026-04-27 05:34 -32.78589 151.82574 25 ft 10 kts 305°
2026-04-27 05:34 -32.78598 151.82543 25 ft 2 kts 221°
2026-04-27 05:34 -32.78601 151.82539 25 ft 0 kts 220°
2026-04-27 05:59 -32.78607 151.82521 27 ft 3 kts 285°
2026-04-27 05:59 -32.78560 151.82438 25 ft 12 kts 270°
2026-04-27 05:59 -32.78620 151.82368 27 ft 19 kts 221°
2026-04-27 05:59 -32.78746 151.82306 28 ft 11 kts 141°
2026-04-27 06:00 -32.80029 151.84103 417 ft 359 kts 129°
2026-04-27 06:00 -32.81809 151.86761 1162 ft 421 kts 121°
2026-04-27 06:00 -32.82924 151.89940 1742 ft 405 kts 102°
2026-04-27 06:01 -32.82547 151.92893 1697 ft 338 kts 71°
2026-04-27 06:01 -32.81805 151.95371 1211 ft 315 kts 72°
2026-04-27 06:01 -32.81089 151.97741 882 ft 293 kts 71°
2026-04-27 06:01 -32.80428 151.99937 886 ft 271 kts 71°
2026-04-27 06:02 -32.79818 152.01967 877 ft 251 kts 71°
2026-04-27 06:02 -32.79253 152.03854 834 ft 233 kts 73°
2026-04-27 06:02 -32.78826 152.05638 778 ft 216 kts 80°
2026-04-27 06:02 -32.78999 152.07341 725 ft 234 kts 109°
2026-04-27 06:03 -32.79525 152.09309 830 ft 242 kts 99°
2026-04-27 06:03 -32.79434 152.11328 980 ft 247 kts 71°
2026-04-27 06:03 -32.78100 152.12205 611 ft 261 kts 348°
2026-04-27 06:03 -32.77025 152.13218 373 ft 260 kts 83°
2026-04-27 06:04 -32.76777 152.15265 464 ft 246 kts 83°
2026-04-27 06:04 -32.76528 152.17256 584 ft 239 kts 83°
2026-04-27 06:04 -32.75807 152.19022 547 ft 250 kts 40°
2026-04-27 06:04 -32.74214 152.19793 636 ft 251 kts 359°
2026-04-27 06:05 -32.72592 152.18953 442 ft 254 kts 360°
2026-04-27 06:05 -32.70815 152.18895 414 ft 256 kts
2026-04-27 06:05 -32.69043 152.18819 429 ft 258 kts 358°
2026-04-27 06:05 -32.67272 152.18785 194 ft 251 kts
2026-04-27 06:06 -32.65593 152.19295 175 ft 249 kts 25°
2026-04-27 06:06 -32.64077 152.20281 180 ft 248 kts 37°
2026-04-27 06:06 -32.62763 152.21589 86 ft 245 kts 45°
2026-04-27 06:06 -32.61664 152.23130 146 ft 244 kts 56°
2026-04-27 06:07 -32.60832 152.24881 138 ft 243 kts 65°
2026-04-27 06:07 -32.60156 152.26725 125 ft 245 kts 68°
2026-04-27 06:07 -32.59462 152.28549 123 ft 239 kts 47°
2026-04-27 06:07 -32.57895 152.29398 86 ft 249 kts 24°
2026-04-27 06:08 -32.56283 152.30160 91 ft 248 kts 27°
2026-04-27 06:08 -32.54841 152.31271 89 ft 247 kts 40°
2026-04-27 06:08 -32.53553 152.32617 141 ft 246 kts 47°
2026-04-27 06:08 -32.52422 152.34140 95 ft 245 kts 53°
2026-04-27 06:09 -32.51406 152.35754 153 ft 211 kts 58°
2026-04-27 06:09 -32.50096 152.36715 2234 ft 235 kts 28°
2026-04-27 06:09 -32.48535 152.37644 3735 ft 263 kts 29°
2026-04-27 06:09 -32.46919 152.38647 3799 ft 260 kts 29°
2026-04-27 06:10 -32.45309 152.39654 3850 ft 260 kts 30°
2026-04-27 06:10 -32.43700 152.40663 3914 ft 260 kts 29°
2026-04-27 06:10 -32.42094 152.41671 3984 ft 262 kts 29°
2026-04-27 06:10 -32.40458 152.42625 4059 ft 263 kts 22°
2026-04-27 06:11 -32.38700 152.43259 4116 ft 265 kts 17°
2026-04-27 06:11 -32.36926 152.43834 4177 ft 264 kts 17°
2026-04-27 06:11 -32.35150 152.44406 4241 ft 265 kts 16°
2026-04-27 06:11 -32.33367 152.44979 4318 ft 265 kts 16°
2026-04-27 06:12 -32.31587 152.45552 4404 ft 266 kts 17°
2026-04-27 06:12 -32.29804 152.46133 4486 ft 266 kts 16°
2026-04-27 06:12 -32.28028 152.46714 4576 ft 266 kts 16°
2026-04-27 06:12 -32.26238 152.47300 4667 ft 267 kts 16°
2026-04-27 06:13 -32.24450 152.47884 4765 ft 268 kts 16°
2026-04-27 06:13 -32.22652 152.48472 4878 ft 268 kts 16°
2026-04-27 06:13 -32.20853 152.49060 4998 ft 268 kts 16°
2026-04-27 06:13 -32.19049 152.49646 5127 ft 270 kts 16°
2026-04-27 06:14 -32.17239 152.50234 5269 ft 270 kts 15°
2026-04-27 06:14 -32.15521 152.50669 2686 ft 244 kts
2026-04-27 06:14 -32.13888 152.50776 176 ft 258 kts
2026-04-27 06:14 -32.12120 152.51268 212 ft 251 kts 20°
2026-04-27 06:15 -32.10468 152.51901 1283 ft 252 kts 19°
2026-04-27 06:15 -32.08733 152.52512 1055 ft 257 kts 19°
2026-04-27 06:15 -32.07043 152.53124 675 ft 255 kts 19°
2026-04-27 06:15 -32.05369 152.53742 507 ft 251 kts 19°
2026-04-27 06:16 -32.03698 152.54357 326 ft 249 kts 20°
2026-04-27 06:16 -32.02107 152.55061 947 ft 253 kts 26°
2026-04-27 06:16 -32.00278 152.56087 666 ft 288 kts 27°
2026-04-27 06:16 -31.98478 152.57266 432 ft 317 kts 43°
2026-04-27 06:17 -31.96382 152.59002 985 ft 405 kts 340°
2026-04-27 06:17 -31.93768 152.57389 3838 ft 378 kts 332°
2026-04-27 06:17 -31.91785 152.56065 4984 ft 295 kts 317°
2026-04-27 06:17 -31.90954 152.54379 2046 ft 204 kts 283°
2026-04-27 06:18 -31.90328 152.52863 537 ft 228 kts 303°
2026-04-27 06:18 -31.89412 152.50897 526 ft 317 kts 276°
2026-04-27 06:18 -31.90242 152.48471 316 ft 331 kts 243°
2026-04-27 06:18 -31.91313 152.45808 341 ft 376 kts 288°
2026-04-27 06:19 -31.90492 152.46786 1899 ft 341 kts 92°
2026-04-27 06:19 -31.90634 152.49603 4677 ft 335 kts 95°
2026-04-27 06:19 -31.91080 152.52172 7076 ft 342 kts 135°
2026-04-27 06:19 -31.93873 152.52932 7064 ft 516 kts 183°
2026-04-27 06:20 -31.97360 152.52449 7134 ft 432 kts 187°
2026-04-27 06:20 -32.00140 152.51974 7095 ft 378 kts 189°
2026-04-27 06:20 -32.02584 152.51446 7013 ft 337 kts 191°
2026-04-27 06:20 -32.04724 152.50812 6935 ft 298 kts 202°
2026-04-27 06:21 -32.06347 152.49532 6953 ft 281 kts 223°
2026-04-27 06:21 -32.07689 152.47888 6866 ft 278 kts 226°
2026-04-27 06:21 -32.09001 152.46225 6774 ft 276 kts 226°
2026-04-27 06:21 -32.09869 152.45118 6717 ft 278 kts 227°
2026-04-27 06:22 -32.11596 152.42912 6600 ft 277 kts 227°
2026-04-27 06:22 -32.12918 152.41224 6507 ft 276 kts 227°
2026-04-27 06:22 -32.14224 152.39556 6419 ft 276 kts 227°
2026-04-27 06:22 -32.15528 152.37893 6343 ft 277 kts 227°
2026-04-27 06:23 -32.16828 152.36265 6276 ft 276 kts 226°
2026-04-27 06:23 -32.18155 152.34626 6218 ft 276 kts 226°
2026-04-27 06:23 -32.19480 152.32986 6160 ft 276 kts 226°
2026-04-27 06:23 -32.20818 152.31323 6100 ft 275 kts 226°
2026-04-27 06:24 -32.22117 152.29705 6049 ft 275 kts 226°
2026-04-27 06:24 -32.23434 152.28064 5993 ft 275 kts 226°
2026-04-27 06:24 -32.24750 152.26422 5936 ft 276 kts 226°
2026-04-27 06:24 -32.26064 152.24781 5882 ft 275 kts 226°
2026-04-27 06:25 -32.27376 152.23138 5824 ft 274 kts 226°
2026-04-27 06:25 -32.28686 152.21496 5774 ft 275 kts 226°
2026-04-27 06:25 -32.29571 152.20387 5741 ft 274 kts 226°
2026-04-27 06:25 -32.31303 152.18215 5686 ft 274 kts 226°
2026-04-27 06:26 -32.32187 152.17105 5659 ft 274 kts 226°
2026-04-27 06:26 -32.33492 152.15463 5621 ft 274 kts 226°
2026-04-27 06:26 -32.34796 152.13816 5600 ft 274 kts 226°
2026-04-27 06:26 -32.36101 152.12170 5571 ft 274 kts 226°
2026-04-27 06:27 -32.37434 152.10598 5549 ft 275 kts 224°
2026-04-27 06:27 -32.38824 152.09005 5530 ft 275 kts 224°
2026-04-27 06:27 -32.40195 152.07432 5504 ft 275 kts 224°
2026-04-27 06:27 -32.41566 152.05902 5476 ft 274 kts 220°
2026-04-27 06:28 -32.43036 152.04463 5463 ft 274 kts 218°
2026-04-27 06:28 -32.44531 152.03057 5430 ft 274 kts 218°
2026-04-27 06:28 -32.46027 152.01652 5407 ft 274 kts 218°
2026-04-27 06:28 -32.47520 152.00245 5378 ft 275 kts 218°
2026-04-27 06:29 -32.49017 151.98841 5354 ft 275 kts 218°
2026-04-27 06:29 -32.50514 151.97436 5326 ft 275 kts 218°
2026-04-27 06:29 -32.52009 151.96026 5313 ft 275 kts 218°
2026-04-27 06:29 -32.53504 151.94613 5226 ft 275 kts 218°
2026-04-27 06:30 -32.55001 151.93201 5128 ft 273 kts 218°
2026-04-27 06:30 -32.56495 151.91794 5009 ft 275 kts 218°
2026-04-27 06:30 -32.57988 151.90387 4814 ft 274 kts 218°
2026-04-27 06:30 -32.59488 151.88994 4538 ft 273 kts 217°
2026-04-27 06:31 -32.60988 151.87612 4280 ft 272 kts 217°
2026-04-27 06:31 -32.62481 151.86233 4024 ft 272 kts 216°
2026-04-27 06:31 -32.63971 151.84857 3778 ft 271 kts 216°
2026-04-27 06:31 -32.65460 151.83481 3533 ft 271 kts 216°
2026-04-27 06:32 -32.66975 151.82157 3285 ft 271 kts 212°
2026-04-27 06:32 -32.68604 151.80954 3047 ft 310 kts 208°
2026-04-27 06:32 -32.70857 151.79678 2882 ft 374 kts 189°
2026-04-27 06:32 -32.73334 151.79426 2387 ft 350 kts 178°
2026-04-27 06:33 -32.75724 151.79856 1566 ft 355 kts 156°
2026-04-27 06:33 -32.77763 151.81557 866 ft 362 kts 133°
2026-04-27 06:33 -32.79421 151.83788 535 ft 358 kts 130°
2026-04-27 06:33 -32.80920 151.84207 1288 ft 221 kts 246°
2026-04-27 06:34 -32.80673 151.82783 1115 ft 146 kts 330°
2026-04-27 06:34 -32.79860 151.81941 1123 ft 176 kts 317°
2026-04-27 06:34 -32.79115 151.80864 1277 ft 163 kts 309°
2026-04-27 06:34 -32.78391 151.79888 1185 ft 152 kts 353°
2026-04-27 06:35 -32.77554 151.80730 911 ft 189 kts 99°
2026-04-27 06:35 -32.78349 151.81761 263 ft 162 kts 130°
2026-04-27 06:35 -32.78989 151.82649 26 ft 116 kts 128°
2026-04-27 06:35 -32.79365 151.83170 28 ft 56 kts 130°
2026-04-27 06:36 -32.79747 151.83702 25 ft 106 kts 130°
2026-04-27 06:36 -32.80237 151.84386 25 ft 81 kts 130°
2026-04-27 06:36 -32.80471 151.84731 25 ft 24 kts 98°
2026-04-27 06:36 -32.80372 151.84834 25 ft 19 kts 358°
2026-04-27 06:37 -32.80268 151.84719 25 ft 26 kts 310°
2026-04-27 06:37 -32.80147 151.84555 25 ft 26 kts 307°
2026-04-27 06:37 -32.80028 151.84386 25 ft 31 kts 310°
2026-04-27 06:37 -32.79571 151.83746 27 ft 125 kts 310°
2026-04-27 06:38 -32.79235 151.83542 27 ft 71 kts 58°
2026-04-27 06:38 -32.79023 151.83707 25 ft 11 kts 348°
2026-04-27 06:38 -32.79000 151.83752 25 ft 5 kts 131°
2026-04-27 06:38 -32.79031 151.83740 25 ft 3 kts 233°
2026-04-27 06:39 -32.79033 151.83737 25 ft 0 kts 233°